»·PEaware :: N416JK KBFL-KONT

N416JK :: KBFL-KONT

FLIGHT INFORMATION

Flight Status: Arrived
Operator: Privately registered:
United States
More flights under this callsign
Pilot: John K. (4202)
Aircraft: PIPER PA-46-310/350P MALIBU MIRAGE
(PA46)
More flights by this aircraft type
Origin: KBFL Meadows
United States
Destination: KONT Ontario Intl
United States
More flights between these airports :: More routes between these airports
Route: +MEADO3 ARVIN V197 POM
File this flight plan on PilotEdge
Remarks:
Altitude:
(Current/Filed)
11,000ft
Speed:
(Current/Filed)
180kts
Departed: 01-Oct-18 08:20 AM
Arrived: 01-Oct-18 09:10 AM
Distance/Time
Traveled:
109nm/0:50
Distance/Time
To Go:
Arrived

Flight Plot

Page will automatically refresh every two minutes.

Flight plan parsing failed; only flown route is shown


Map Options




Map Legend


Flown Route
Filed Route
Departure Airport
Arrival Airport
Navaid (VOR, NDB)
Fix

Horizontal Profiles

Position Reports

Time Latitude Longitude Heading Altitude Ground
Speed
01-Oct-18 08:13 35.429516 -119.046656 226 508ft 0kts
01-Oct-18 08:14 35.429516 -119.046656 226 508ft 0kts
01-Oct-18 08:15 35.429516 -119.046656 226 508ft 0kts
01-Oct-18 08:16 35.429516 -119.046656 226 508ft 0kts
01-Oct-18 08:17 35.429516 -119.046656 226 508ft 0kts
01-Oct-18 08:18 35.429078 -119.046806 192 508ft 12kts
01-Oct-18 08:19 35.426001 -119.044593 170 508ft 10kts
01-Oct-18 08:20 35.425777 -119.044707 219 508ft 0kts
01-Oct-18 08:21 35.425587 -119.044990 246 508ft 16kts
01-Oct-18 08:22 35.439067 -119.063801 312 1015ft 111kts
01-Oct-18 08:23 35.462267 -119.091530 315 2021ft 139kts
01-Oct-18 08:24 35.488714 -119.123151 315 3045ft 150kts
01-Oct-18 08:25 35.485130 -119.158760 176 4144ft 150kts
01-Oct-18 08:26 35.445924 -119.145202 163 5231ft 148kts
01-Oct-18 08:27 35.409675 -119.125516 119 6316ft 149kts
01-Oct-18 08:28 35.388617 -119.081507 122 7425ft 152kts
01-Oct-18 08:29 35.366163 -119.036983 123 8525ft 158kts
01-Oct-18 08:30 35.343008 -118.991356 125 9623ft 161kts
01-Oct-18 08:31 35.319596 -118.945295 126 10720ft 162kts
01-Oct-18 08:32 35.293410 -118.894194 125 10998ft 200kts
01-Oct-18 08:33 35.257921 -118.839617 140 10992ft 210kts
01-Oct-18 08:34 35.214948 -118.791158 140 10992ft 214kts
01-Oct-18 08:35 35.171877 -118.742569 140 11030ft 213kts
01-Oct-18 08:36 35.129018 -118.694310 141 11073ft 213kts
01-Oct-18 08:37 35.086092 -118.646056 141 11102ft 213kts
01-Oct-18 08:38 35.042279 -118.596867 141 11115ft 214kts
01-Oct-18 08:39 35.000386 -118.545861 136 11035ft 214kts
01-Oct-18 08:40 34.961001 -118.494053 136 11030ft 210kts
01-Oct-18 08:41 34.922059 -118.442979 135 11018ft 207kts
01-Oct-18 08:42 34.883648 -118.392675 135 11001ft 205kts
01-Oct-18 08:43 34.845064 -118.342157 135 10986ft 203kts
01-Oct-18 08:44 34.807036 -118.292467 135 10981ft 203kts
01-Oct-18 08:45 34.769100 -118.242976 135 10981ft 203kts
01-Oct-18 08:46 34.731188 -118.193603 135 10981ft 202kts
01-Oct-18 08:47 34.692766 -118.143640 135 10981ft 202kts
01-Oct-18 08:48 34.654832 -118.094370 135 10981ft 202kts
01-Oct-18 08:49 34.612263 -118.054354 158 10983ft 198kts
01-Oct-18 08:50 34.564503 -118.030306 158 10980ft 199kts
01-Oct-18 08:51 34.514197 -118.005025 159 10976ft 199kts
01-Oct-18 08:52 34.464814 -117.980215 159 10963ft 183kts
01-Oct-18 08:53 34.417156 -117.956329 157 10957ft 196kts
01-Oct-18 08:54 34.366485 -117.930852 157 10939ft 202kts
01-Oct-18 08:55 34.315589 -117.905389 158 11014ft 200kts
01-Oct-18 08:56 34.264964 -117.879956 158 11011ft 202kts
01-Oct-18 08:57 34.212899 -117.853970 158 11008ft 203kts
01-Oct-18 08:58 34.161753 -117.828471 158 11018ft 204kts
01-Oct-18 08:59 34.109179 -117.802377 158 10613ft 217kts
01-Oct-18 09:00 34.070340 -117.755500 113 9164ft 216kts
01-Oct-18 09:01 34.049564 -117.690764 111 7622ft 187kts
01-Oct-18 09:02 34.032699 -117.638770 111 5914ft 157kts
01-Oct-18 09:03 34.020390 -117.593369 94 4714ft 146kts
01-Oct-18 09:04 34.016412 -117.541278 94 4004ft 151kts
01-Oct-18 09:05 34.014440 -117.497920 85 4000ft 115kts
01-Oct-18 09:06 34.016045 -117.463158 86 4000ft 93kts
01-Oct-18 09:07 34.033443 -117.450220 344 3443ft 125kts
01-Oct-18 09:08 34.055249 -117.474119 267 3182ft 97kts
01-Oct-18 09:09 34.054744 -117.507096 270 3013ft 111kts
01-Oct-18 09:10 34.055873 -117.543085 270 1748ft 102kts
01-Oct-18 09:11 34.054869 -117.573120 270 1171ft 110kts
01-Oct-18 09:12 34.054366 -117.594448 219 947ft 0kts
01-Oct-18 09:13 34.053901 -117.598991 269 947ft 42kts
01-Oct-18 09:14 34.053059 -117.610004 15 947ft 0kts

Navigation Log

Ident Type
Flight plan parsing failed, navigation log unavailable